Time;durP1;ratioP1;P1;durP2;ratioP2;P2;SDS_P1;SDS_P2;PMS_P1;PMS_P2;Temp;Humidity;BMP_temperature;BMP_pressure;BME280_temperature;BME280_humidity;BME280_pressure;Samples;Min_cycle;Max_cycle;Signal;HPM_P1;HPM_P2
2023/04/25 00:01:17;;;;;;;12.45;3.85;;;6.90;83.00;;;;;;4978420;28;20622;-80
2023/04/25 00:03:43;;;;;;;15.98;4.53;;;7.00;83.20;;;;;;4961611;28;20117;-78
2023/04/25 00:06:08;;;;;;;17.20;5.03;;;7.00;83.40;;;;;;4960750;28;20189;-80
2023/04/25 00:08:34;;;;;;;15.55;4.40;;;7.00;83.70;;;;;;4979335;28;20162;-79
2023/04/25 00:11:00;;;;;;;16.30;4.25;;;7.00;83.70;;;;;;5013504;28;20042;-80
2023/04/25 00:13:26;;;;;;;15.02;3.72;;;7.00;83.80;;;;;;4997220;28;20042;-80
2023/04/25 00:15:56;;;;;;;21.20;5.45;;;7.00;83.90;;;;;;4981315;28;20040;-79
2023/04/25 00:18:22;;;;;;;19.92;4.65;;;7.00;84.10;;;;;;4998047;28;20038;-78
2023/04/25 00:20:48;;;;;;;15.02;3.88;;;7.00;84.30;;;;;;4981344;28;20566;-80
2023/04/25 00:23:17;;;;;;;15.07;4.03;;;7.10;84.40;;;;;;4993316;28;20487;-79
2023/04/25 00:25:48;;;;;;;23.23;5.38;;;7.10;84.40;;;;;;4994036;28;20430;-80
2023/04/25 00:28:14;;;;;;;15.65;3.90;;;7.10;84.10;;;;;;4993782;28;20129;-79
2023/04/25 00:30:40;;;;;;;14.15;3.22;;;7.00;83.90;;;;;;4977737;28;20492;-79
2023/04/25 00:33:06;;;;;;;19.23;3.67;;;7.00;83.60;;;;;;4977699;28;20026;-79
2023/04/25 00:35:32;;;;;;;12.27;3.90;;;7.00;83.10;;;;;;4993997;28;20048;-79
2023/04/25 00:37:58;;;;;;;13.32;3.28;;;7.10;82.10;;;;;;4993472;28;20042;-80
2023/04/25 00:40:24;;;;;;;9.00;2.47;;;7.10;81.40;;;;;;4977082;28;20129;-79
2023/04/25 00:42:52;;;;;;;15.02;4.88;;;7.10;80.90;;;;;;4995201;28;20077;-81
2023/04/25 00:45:18;;;;;;;12.13;3.20;;;7.00;80.60;;;;;;5012732;28;20046;-79
2023/04/25 00:47:44;;;;;;;13.20;3.17;;;7.00;80.40;;;;;;4979885;28;20133;-79
2023/04/25 00:50:10;;;;;;;18.20;3.42;;;6.90;80.20;;;;;;4996344;28;20081;-79
2023/04/25 00:52:43;;;;;;;12.80;3.00;;;7.00;79.60;;;;;;4996122;28;20044;-80
2023/04/25 00:55:10;;;;;;;11.20;2.78;;;7.00;79.10;;;;;;5012526;28;20539;-79
2023/04/25 00:57:36;;;;;;;13.07;3.38;;;7.00;78.90;;;;;;4995898;28;20077;-80
2023/04/25 01:00:05;;;;;;;15.02;2.65;;;6.90;78.90;;;;;;4979881;28;20042;-80
2023/04/25 01:02:32;;;;;;;9.95;2.58;;;6.90;79.20;;;;;;4995998;28;20053;-80
2023/04/25 01:04:58;;;;;;;10.65;3.03;;;6.80;79.20;;;;;;4996303;28;20046;-79
2023/04/25 01:07:24;;;;;;;11.27;2.92;;;6.90;79.30;;;;;;4996433;28;20046;-81
2023/04/25 01:09:51;;;;;;;10.93;2.67;;;6.90;79.10;;;;;;4980225;28;20128;-80
2023/04/25 01:12:17;;;;;;;13.27;2.75;;;6.90;78.90;;;;;;4996586;28;20042;-80
2023/04/25 01:14:43;;;;;;;12.02;2.50;;;6.90;78.90;;;;;;4966147;28;20474;-79
2023/04/25 01:17:10;;;;;;;12.73;2.90;;;6.90;79.20;;;;;;4976125;28;20104;-79
2023/04/25 01:19:36;;;;;;;19.30;4.40;;;7.00;79.30;;;;;;4993003;28;20078;-81
2023/04/25 01:22:01;;;;;;;15.23;2.72;;;6.90;79.80;;;;;;4960751;28;20185;-80
2023/04/25 01:24:27;;;;;;;12.88;3.42;;;6.90;80.60;;;;;;4960660;28;20096;-80
2023/04/25 01:26:56;;;;;;;12.60;2.25;;;7.00;81.10;;;;;;4992914;28;20049;-79
2023/04/25 01:29:22;;;;;;;12.00;3.17;;;7.00;81.70;;;;;;4976667;28;20069;-80
2023/04/25 01:31:49;;;;;;;14.00;2.50;;;7.00;81.40;;;;;;4987999;28;20050;-79
2023/04/25 01:34:15;;;;;;;8.10;2.13;;;6.80;81.40;;;;;;4992914;28;20105;-80
2023/04/25 01:36:41;;;;;;;7.35;2.30;;;6.70;81.20;;;;;;4960394;28;20046;-80
2023/04/25 01:39:07;;;;;;;11.95;3.28;;;6.70;81.40;;;;;;4976323;28;20045;-80
2023/04/25 01:41:36;;;;;;;11.82;2.78;;;6.60;81.30;;;;;;4975830;28;20042;-81
2023/04/25 01:44:02;;;;;;;7.25;1.92;;;6.60;81.10;;;;;;4976178;28;20398;-79
2023/04/25 01:46:29;;;;;;;11.45;2.35;;;6.50;80.90;;;;;;5001029;28;20111;-80
2023/04/25 01:48:55;;;;;;;11.73;2.78;;;6.50;80.70;;;;;;4995624;28;20133;-79
2023/04/25 01:51:20;;;;;;;6.30;1.77;;;6.40;80.50;;;;;;4996164;28;20073;-80
2023/04/25 01:53:46;;;;;;;6.95;2.28;;;6.30;80.50;;;;;;4979766;28;20092;-79
2023/04/25 01:56:12;;;;;;;8.35;1.80;;;6.40;80.20;;;;;;4996287;28;20038;-80
2023/04/25 01:58:37;;;;;;;8.45;2.30;;;6.30;79.50;;;;;;4995849;28;20038;-79
2023/04/25 02:01:03;;;;;;;10.02;2.28;;;6.30;79.40;;;;;;4996030;28;20081;-79
2023/04/25 02:03:31;;;;;;;9.43;2.05;;;6.40;79.50;;;;;;4979155;28;20480;-80
2023/04/25 02:05:56;;;;;;;11.65;2.40;;;6.30;79.80;;;;;;5012027;28;20505;-80
2023/04/25 02:08:22;;;;;;;9.90;2.90;;;6.40;80.20;;;;;;5012062;28;20030;-81
2023/04/25 02:10:48;;;;;;;10.80;2.17;;;6.40;80.00;;;;;;5012054;28;20041;-79
2023/04/25 02:13:14;;;;;;;10.10;2.63;;;6.50;79.70;;;;;;4979550;28;20049;-81
2023/04/25 02:15:40;;;;;;;8.32;2.45;;;6.40;79.50;;;;;;4995825;28;20038;-80
2023/04/25 02:18:06;;;;;;;10.43;1.80;;;6.30;79.30;;;;;;4963980;28;20049;-79
2023/04/25 02:20:32;;;;;;;7.22;1.45;;;6.40;77.80;;;;;;4963835;28;20046;-79
2023/04/25 02:22:58;;;;;;;10.63;3.38;;;6.30;77.60;;;;;;4979811;28;20425;-80
2023/04/25 02:25:24;;;;;;;9.63;3.05;;;6.30;76.70;;;;;;4995742;28;20046;-79
2023/04/25 02:27:51;;;;;;;5.97;1.58;;;6.30;76.30;;;;;;4979552;28;20081;-79
2023/04/25 02:30:17;;;;;;;8.27;1.50;;;6.30;75.60;;;;;;4983402;28;20441;-79
2023/04/25 02:32:43;;;;;;;7.35;1.83;;;6.30;76.00;;;;;;4982960;28;20038;-79
2023/04/25 02:35:09;;;;;;;9.23;2.30;;;6.30;76.30;;;;;;5015912;28;20034;-80
2023/04/25 02:37:36;;;;;;;5.85;1.48;;;6.30;76.70;;;;;;4983008;28;20046;-78
2023/04/25 02:40:05;;;;;;;5.50;1.38;;;6.20;77.30;;;;;;4999505;28;20042;-79
2023/04/25 02:42:31;;;;;;;8.07;2.33;;;6.20;77.90;;;;;;4999645;28;20048;-80
2023/04/25 02:44:57;;;;;;;8.60;2.95;;;6.10;78.60;;;;;;4999700;28;20120;-79
2023/04/25 02:47:22;;;;;;;8.80;2.30;;;6.10;79.00;;;;;;4979536;28;20055;-80
2023/04/25 02:49:48;;;;;;;15.13;2.47;;;6.10;79.60;;;;;;4980005;28;20030;-79
2023/04/25 02:52:13;;;;;;;9.80;2.47;;;6.20;80.20;;;;;;4996321;28;20047;-80
2023/04/25 02:54:40;;;;;;;10.57;2.13;;;6.10;80.00;;;;;;5012404;28;20393;-80
2023/04/25 02:57:06;;;;;;;11.68;2.28;;;6.10;80.30;;;;;;5005543;28;20149;-79
2023/04/25 02:59:32;;;;;;;10.52;2.35;;;6.00;80.30;;;;;;5021809;28;20093;-79
2023/04/25 03:01:58;;;;;;;7.90;2.70;;;6.00;80.50;;;;;;5020874;28;20022;-78
2023/04/25 03:04:24;;;;;;;15.43;2.85;;;6.00;80.90;;;;;;5004046;28;20202;-79
2023/04/25 03:06:50;;;;;;;13.23;2.22;;;6.00;80.90;;;;;;5016079;28;20057;-80
2023/04/25 03:09:16;;;;;;;11.05;2.70;;;6.10;80.90;;;;;;5031938;28;20042;-81
2023/04/25 03:11:43;;;;;;;11.80;2.33;;;6.10;81.30;;;;;;4999050;28;20448;-81
2023/04/25 03:14:09;;;;;;;9.48;2.00;;;6.10;81.20;;;;;;4999105;28;20046;-79
2023/04/25 03:16:35;;;;;;;8.93;2.33;;;6.20;81.30;;;;;;4982310;28;20046;-79
2023/04/25 03:19:01;;;;;;;12.90;2.78;;;6.20;81.50;;;;;;4982401;28;20037;-79
2023/04/25 03:21:27;;;;;;;9.52;2.10;;;6.20;81.40;;;;;;5014895;28;20133;-79
2023/04/25 03:23:53;;;;;;;8.00;1.95;;;6.20;81.70;;;;;;4998479;28;20073;-79
2023/04/25 03:26:18;;;;;;;11.48;2.20;;;6.20;81.80;;;;;;4982450;28;20104;-79
2023/04/25 03:28:44;;;;;;;8.40;1.85;;;6.10;81.90;;;;;;4982430;28;20034;-80
2023/04/25 03:31:10;;;;;;;10.05;2.25;;;6.10;82.30;;;;;;4998434;28;20442;-79
2023/04/25 03:33:35;;;;;;;7.78;1.98;;;6.20;81.60;;;;;;4981491;28;20552;-79
2023/04/25 03:36:01;;;;;;;11.32;1.90;;;6.20;81.20;;;;;;4998159;28;20061;-79
2023/04/25 03:38:27;;;;;;;8.32;2.22;;;6.20;80.20;;;;;;4982198;28;20037;-80
2023/04/25 03:40:54;;;;;;;8.60;1.92;;;6.10;79.80;;;;;;4980848;28;20500;-79
2023/04/25 03:43:19;;;;;;;7.53;1.88;;;6.10;79.30;;;;;;4998094;28;20538;-81
2023/04/25 03:45:45;;;;;;;12.88;3.45;;;6.10;78.50;;;;;;4998553;28;20081;-79
2023/04/25 03:48:11;;;;;;;10.68;2.15;;;6.20;77.80;;;;;;4965249;28;20418;-80
2023/04/25 03:50:37;;;;;;;8.75;1.90;;;6.10;78.00;;;;;;5014623;28;20139;-80
2023/04/25 03:53:03;;;;;;;7.32;1.80;;;6.10;78.00;;;;;;4998070;28;20129;-81
2023/04/25 03:55:28;;;;;;;12.35;2.22;;;6.20;78.00;;;;;;5014195;28;20096;-80
2023/04/25 03:57:54;;;;;;;9.10;1.90;;;6.10;77.90;;;;;;4997909;28;20074;-79
2023/04/25 04:00:20;;;;;;;7.18;2.45;;;6.20;77.80;;;;;;4997716;28;20079;-81
2023/04/25 04:02:45;;;;;;;7.90;1.75;;;6.20;77.50;;;;;;4981502;28;20049;-81
2023/04/25 04:05:11;;;;;;;5.03;1.45;;;6.20;77.60;;;;;;4981074;28;20042;-81
2023/04/25 04:07:39;;;;;;;7.32;2.30;;;6.10;77.50;;;;;;4980938;28;20081;-81
2023/04/25 04:10:07;;;;;;;8.90;1.75;;;6.10;77.60;;;;;;4996614;28;20048;-81
2023/04/25 04:12:33;;;;;;;7.32;2.22;;;6.10;77.50;;;;;;5013586;28;20041;-80
2023/04/25 04:14:59;;;;;;;13.15;2.58;;;6.00;77.20;;;;;;4996759;28;20044;-80
2023/04/25 04:17:25;;;;;;;10.50;2.22;;;6.00;77.30;;;;;;4997282;28;20125;-80
2023/04/25 04:19:50;;;;;;;9.30;1.58;;;5.90;77.50;;;;;;4965165;28;20048;-81
2023/04/25 04:22:16;;;;;;;8.35;1.83;;;5.90;77.60;;;;;;4965007;28;20045;-81
2023/04/25 04:24:46;;;;;;;11.30;2.22;;;5.90;77.30;;;;;;5013601;28;20045;-80
2023/04/25 04:27:12;;;;;;;8.45;2.60;;;5.90;77.00;;;;;;4997185;28;20046;-80
2023/04/25 04:29:38;;;;;;;6.90;1.73;;;6.00;76.80;;;;;;5013552;28;20076;-81
2023/04/25 04:32:04;;;;;;;11.48;2.22;;;6.10;76.80;;;;;;4996988;28;20045;-81
2023/04/25 04:34:30;;;;;;;7.18;2.30;;;6.10;76.90;;;;;;4997988;28;20042;-81
2023/04/25 04:36:57;;;;;;;9.90;2.28;;;6.10;77.10;;;;;;4984762;28;20101;-80
2023/04/25 04:39:22;;;;;;;4.88;1.08;;;6.10;76.90;;;;;;4977444;28;20050;-80
2023/04/25 04:41:48;;;;;;;5.65;1.88;;;6.10;76.30;;;;;;4977097;28;20046;-81
2023/04/25 04:44:14;;;;;;;8.38;1.63;;;6.30;75.60;;;;;;4992934;28;20470;-81
2023/04/25 04:46:44;;;;;;;6.55;1.83;;;6.20;75.90;;;;;;4976825;28;20046;-80
2023/04/25 04:49:11;;;;;;;7.68;2.05;;;6.20;76.00;;;;;;4977239;28;20105;-80
2023/04/25 04:51:38;;;;;;;6.85;1.42;;;6.30;76.10;;;;;;4993128;28;20038;-81
2023/04/25 04:54:04;;;;;;;9.70;1.98;;;6.30;76.40;;;;;;4982087;28;20532;-81
2023/04/25 04:56:30;;;;;;;9.60;1.48;;;6.30;76.80;;;;;;4993378;28;20093;-80
2023/04/25 04:58:59;;;;;;;3.03;0.90;;;6.30;77.30;;;;;;4961408;28;20064;-81
2023/04/25 05:01:26;;;;;;;9.02;1.30;;;6.30;77.10;;;;;;4977279;28;20129;-81
2023/04/25 05:03:52;;;;;;;5.38;1.20;;;6.20;77.30;;;;;;4993633;28;20046;-81
2023/04/25 05:06:19;;;;;;;6.95;1.67;;;6.20;78.00;;;;;;4993176;28;20129;-80
2023/04/25 05:08:45;;;;;;;8.68;1.70;;;6.10;78.00;;;;;;4993145;28;20494;-80
2023/04/25 05:11:11;;;;;;;7.00;1.30;;;6.10;78.40;;;;;;4965059;28;20079;-81
2023/04/25 05:13:37;;;;;;;7.97;2.65;;;6.20;78.40;;;;;;4980514;28;20394;-81
2023/04/25 05:16:02;;;;;;;4.15;1.30;;;6.10;78.20;;;;;;4996587;28;20041;-80
2023/04/25 05:18:29;;;;;;;4.57;1.40;;;6.10;78.20;;;;;;4980264;28;20038;-80
2023/04/25 05:20:55;;;;;;;4.07;1.80;;;6.10;78.40;;;;;;4964572;28;20116;-81
2023/04/25 05:23:21;;;;;;;5.28;1.80;;;6.10;78.40;;;;;;4980208;28;20172;-82
2023/04/25 05:25:46;;;;;;;8.95;1.60;;;6.20;79.00;;;;;;4996499;28;20038;-81
2023/04/25 05:28:13;;;;;;;6.97;1.70;;;6.10;79.10;;;;;;4996318;28;20562;-80
2023/04/25 05:30:39;;;;;;;9.60;1.88;;;6.10;79.10;;;;;;4976724;28;20219;-80
2023/04/25 05:33:04;;;;;;;7.38;1.65;;;6.10;79.10;;;;;;4980703;28;20502;-79
2023/04/25 05:35:30;;;;;;;5.68;1.98;;;6.10;79.50;;;;;;4948698;28;20048;-79
2023/04/25 05:37:56;;;;;;;6.53;1.60;;;6.10;79.50;;;;;;5032079;28;20041;-79
2023/04/25 05:40:22;;;;;;;9.32;1.80;;;6.10;79.70;;;;;;5015995;28;20132;-80
2023/04/25 05:42:47;;;;;;;6.10;1.55;;;6.20;79.80;;;;;;5015669;28;20045;-79
2023/04/25 05:45:13;;;;;;;10.63;2.00;;;6.30;79.80;;;;;;5015685;28;20045;-80
2023/04/25 05:47:39;;;;;;;8.10;2.20;;;6.30;79.90;;;;;;5012280;28;20240;-79
2023/04/25 05:50:05;;;;;;;8.07;2.67;;;6.30;80.10;;;;;;4995753;28;20038;-80
2023/04/25 05:52:31;;;;;;;8.25;2.47;;;6.30;80.00;;;;;;4979836;28;20076;-80
2023/04/25 05:54:57;;;;;;;9.15;2.13;;;6.30;79.90;;;;;;5012272;28;20041;-79
2023/04/25 05:57:27;;;;;;;6.13;1.85;;;6.40;79.80;;;;;;4996128;28;20042;-80
2023/04/25 05:59:53;;;;;;;5.90;1.42;;;6.40;79.70;;;;;;5012165;28;20038;-78
2023/04/25 06:02:20;;;;;;;6.47;1.17;;;6.40;79.60;;;;;;4995755;28;20034;-78
2023/04/25 06:04:46;;;;;;;7.90;1.55;;;6.40;79.10;;;;;;5015777;28;20053;-79
2023/04/25 06:07:12;;;;;;;3.63;1.13;;;6.40;79.00;;;;;;5016096;28;20081;-80
2023/04/25 06:09:41;;;;;;;7.40;1.27;;;6.30;78.90;;;;;;4999880;28;20100;-80
2023/04/25 06:12:07;;;;;;;6.72;1.55;;;6.30;79.20;;;;;;4984108;28;20547;-79
2023/04/25 06:14:33;;;;;;;6.05;1.20;;;6.30;79.00;;;;;;4987218;28;20121;-79
2023/04/25 06:17:06;;;;;;;6.88;1.70;;;6.20;78.70;;;;;;4996397;28;20046;-80
2023/04/25 06:19:32;;;;;;;6.30;1.30;;;6.20;78.30;;;;;;4979928;28;20081;-81
2023/04/25 06:21:58;;;;;;;7.07;1.60;;;6.10;78.20;;;;;;4996196;28;20184;-81
2023/04/25 06:24:24;;;;;;;6.38;2.88;;;6.10;78.30;;;;;;4996049;28;20495;-79
2023/04/25 06:26:49;;;;;;;6.45;1.42;;;6.10;78.60;;;;;;4963620;28;20112;-80
2023/04/25 06:29:15;;;;;;;9.23;1.70;;;6.10;78.90;;;;;;4963703;28;20042;-81
2023/04/25 06:31:41;;;;;;;9.50;1.67;;;6.20;79.00;;;;;;4979736;28;20046;-80
2023/04/25 06:34:06;;;;;;;7.72;1.55;;;6.20;79.20;;;;;;4980178;28;20042;-79
2023/04/25 06:36:32;;;;;;;8.20;1.23;;;6.40;79.30;;;;;;4979790;28;20509;-79
2023/04/25 06:38:58;;;;;;;8.63;1.75;;;6.50;79.30;;;;;;4947650;28;20461;-80
2023/04/25 06:41:23;;;;;;;13.05;2.38;;;6.60;79.30;;;;;;4995684;28;20042;-80
2023/04/25 06:43:49;;;;;;;6.32;1.52;;;6.80;79.10;;;;;;4963561;28;20061;-80
2023/04/25 06:46:15;;;;;;;9.10;1.52;;;6.80;78.80;;;;;;4978886;28;20046;-80
2023/04/25 06:48:41;;;;;;;6.07;1.45;;;7.00;78.90;;;;;;4978760;28;20081;-79
2023/04/25 06:51:06;;;;;;;6.10;1.70;;;7.20;78.70;;;;;;4995302;28;20049;-80
2023/04/25 06:53:32;;;;;;;8.52;1.00;;;7.30;79.30;;;;;;4963755;28;20049;-79
2023/04/25 06:55:58;;;;;;;10.50;2.38;;;7.20;79.90;;;;;;4948178;28;20478;-80
2023/04/25 06:58:23;;;;;;;6.35;1.50;;;7.10;80.80;;;;;;4980174;28;20104;-79
2023/04/25 07:00:49;;;;;;;11.63;2.60;;;6.90;81.60;;;;;;4964790;28;20053;-80
2023/04/25 07:03:15;;;;;;;7.53;2.00;;;6.80;82.10;;;;;;4960132;28;20479;-80
2023/04/25 07:05:40;;;;;;;9.65;2.08;;;6.70;82.50;;;;;;4990465;28;20559;-80
2023/04/25 07:08:06;;;;;;;8.50;1.95;;;6.70;82.80;;;;;;5020153;28;20125;-80
2023/04/25 07:10:32;;;;;;;7.00;1.95;;;6.70;83.20;;;;;;5021861;28;20159;-80
2023/04/25 07:12:58;;;;;;;6.65;1.30;;;6.80;83.40;;;;;;5017287;28;20493;-80
2023/04/25 07:15:23;;;;;;;6.65;1.60;;;6.90;83.40;;;;;;5005087;28;20390;-80
2023/04/25 07:17:49;;;;;;;10.52;2.33;;;6.90;83.30;;;;;;5023415;28;20060;-81
2023/04/25 07:20:18;;;;;;;7.97;2.33;;;7.00;82.10;;;;;;5010674;28;20091;-82
2023/04/25 07:22:43;;;;;;;7.28;2.08;;;7.00;81.40;;;;;;5022463;28;20042;-81
2023/04/25 07:25:09;;;;;;;5.25;1.48;;;7.00;80.70;;;;;;5004667;28;20134;-80
2023/04/25 07:27:35;;;;;;;3.95;0.93;;;7.00;80.20;;;;;;5005723;28;20176;-79
2023/04/25 07:30:04;;;;;;;2.65;1.27;;;7.00;79.60;;;;;;5007418;28;20133;-80
2023/04/25 07:32:30;;;;;;;3.92;1.17;;;6.90;78.80;;;;;;5002274;28;20133;-81
2023/04/25 07:34:56;;;;;;;4.25;1.10;;;7.00;77.90;;;;;;5017535;28;20163;-81
2023/04/25 07:37:21;;;;;;;6.30;1.10;;;7.00;77.30;;;;;;5019129;28;20042;-80
2023/04/25 07:39:47;;;;;;;7.13;1.77;;;7.10;77.90;;;;;;5019585;28;20037;-80
2023/04/25 07:42:13;;;;;;;8.20;1.55;;;7.20;78.00;;;;;;5021185;28;20417;-79
2023/04/25 07:44:39;;;;;;;7.05;1.65;;;7.30;77.80;;;;;;5004389;28;20081;-80
2023/04/25 07:47:09;;;;;;;7.20;1.50;;;7.50;77.90;;;;;;4990375;28;20053;-77
2023/04/25 07:49:38;;;;;;;8.55;1.65;;;7.60;77.90;;;;;;5022021;28;20429;-80
2023/04/25 07:52:07;;;;;;;12.10;2.60;;;7.80;77.70;;;;;;5004322;28;20037;-80
2023/04/25 07:54:33;;;;;;;11.80;2.17;;;7.90;76.60;;;;;;5021928;28;20045;-80
2023/04/25 07:56:59;;;;;;;10.57;1.80;;;8.00;76.40;;;;;;5005710;28;20045;-80
2023/04/25 07:59:25;;;;;;;6.25;1.83;;;8.10;76.30;;;;;;5021448;28;20050;-80
2023/04/25 08:01:51;;;;;;;6.90;2.08;;;8.30;75.40;;;;;;5004708;28;20390;-81
2023/04/25 08:04:17;;;;;;;9.93;2.45;;;8.20;75.70;;;;;;4998265;28;20077;-80
2023/04/25 08:06:43;;;;;;;4.25;1.48;;;8.30;75.90;;;;;;4988499;28;20041;-80
2023/04/25 08:09:09;;;;;;;11.68;2.92;;;8.10;74.80;;;;;;5023102;28;20058;-80
2023/04/25 08:11:35;;;;;;;7.50;1.88;;;8.10;75.20;;;;;;5014377;28;20045;-80
2023/04/25 08:14:01;;;;;;;6.32;1.67;;;8.00;74.90;;;;;;5019026;28;20053;-80
2023/04/25 08:16:28;;;;;;;4.03;1.05;;;8.00;74.10;;;;;;5028304;28;20049;-79
2023/04/25 08:18:54;;;;;;;7.38;1.90;;;7.90;74.70;;;;;;5023960;28;20092;-80
2023/04/25 08:21:20;;;;;;;6.75;1.50;;;8.00;75.10;;;;;;5018888;28;20046;-81
2023/04/25 08:23:46;;;;;;;6.63;1.50;;;8.10;74.50;;;;;;5020064;28;20564;-80
2023/04/25 08:26:11;;;;;;;7.45;2.38;;;8.20;72.60;;;;;;5002755;28;20136;-80
2023/04/25 08:28:37;;;;;;;6.32;1.75;;;8.30;71.90;;;;;;5021015;28;20048;-80
2023/04/25 08:31:03;;;;;;;11.52;2.58;;;8.40;71.50;;;;;;5003713;28;20098;-80
2023/04/25 08:33:29;;;;;;;8.63;2.08;;;8.50;71.20;;;;;;5001494;28;20527;-80
2023/04/25 08:35:55;;;;;;;10.98;1.77;;;8.70;71.60;;;;;;5015339;28;20502;-80
2023/04/25 08:38:21;;;;;;;7.30;1.58;;;8.90;71.20;;;;;;5002530;28;20092;-80
2023/04/25 08:40:51;;;;;;;8.85;1.58;;;8.90;71.00;;;;;;5023865;28;20042;-80
2023/04/25 08:43:19;;;;;;;7.85;1.60;;;8.80;70.00;;;;;;5016702;28;20406;-79
2023/04/25 08:45:45;;;;;;;12.32;1.90;;;8.80;69.90;;;;;;5005295;28;20052;-80
2023/04/25 08:48:16;;;;;;;7.05;1.58;;;8.60;71.90;;;;;;5017262;28;20153;-80
2023/04/25 08:50:50;;;;;;;8.85;2.80;;;8.50;72.90;;;;;;5003145;28;20091;-81
2023/04/25 08:53:19;;;;;;;8.38;2.22;;;8.40;72.30;;;;;;5020653;28;20042;-79
2023/04/25 08:55:46;;;;;;;7.88;1.40;;;8.40;70.90;;;;;;5003148;28;20535;-80
2023/04/25 08:58:13;;;;;;;10.35;2.50;;;8.50;69.50;;;;;;5007184;28;20049;-79
2023/04/25 09:00:39;;;;;;;6.28;1.85;;;8.60;70.10;;;;;;4993347;28;20402;-80
2023/04/25 09:03:05;;;;;;;8.40;3.22;;;8.80;69.50;;;;;;4997893;28;20049;-80
2023/04/25 09:05:33;;;;;;;6.50;1.40;;;8.90;68.70;;;;;;5018349;28;20408;-80
2023/04/25 09:08:00;;;;;;;5.32;1.45;;;9.00;68.20;;;;;;5004617;28;20044;-80
2023/04/25 09:10:26;;;;;;;9.32;1.65;;;9.10;68.20;;;;;;4985185;28;20121;-79
2023/04/25 09:13:26;;;;;;;9.23;1.75;;;9.30;67.90;;;;;;5011599;28;20069;-79
2023/04/25 09:15:54;;;;;;;10.10;2.20;;;9.50;67.50;;;;;;5000012;28;20501;-80
2023/04/25 09:18:26;;;;;;;6.03;2.53;;;9.60;67.10;;;;;;5004961;28;20405;-79
2023/04/25 09:21:07;;;;;;;7.32;1.40;;;9.60;67.60;;;;;;5004537;28;20049;-80
2023/04/25 09:23:40;;;;;;;4.75;1.40;;;9.40;67.10;;;;;;5006352;28;20044;-80
2023/04/25 09:26:07;;;;;;;4.88;1.52;;;9.10;67.90;;;;;;5006119;28;20571;-79
2023/04/25 09:28:34;;;;;;;3.22;1.05;;;8.90;69.50;;;;;;5003980;28;20112;-80
2023/04/25 09:31:01;;;;;;;4.90;1.35;;;8.50;70.80;;;;;;4986295;28;20413;-80
2023/04/25 09:33:36;;;;;;;5.28;1.15;;;8.20;71.50;;;;;;5029563;28;20034;-80
2023/04/25 09:36:05;;;;;;;7.07;1.60;;;8.10;72.70;;;;;;5044507;28;20128;-79
2023/04/25 09:38:33;;;;;;;7.00;2.10;;;7.90;72.80;;;;;;5032766;28;20029;-79
2023/04/25 09:41:00;;;;;;;5.78;1.00;;;8.10;70.80;;;;;;5045704;28;20030;-79
2023/04/25 09:43:27;;;;;;;4.63;0.95;;;8.10;70.30;;;;;;5045675;28;20041;-80
2023/04/25 09:45:57;;;;;;;6.03;1.15;;;8.10;69.90;;;;;;5039492;28;20126;-79
2023/04/25 09:48:24;;;;;;;3.72;1.55;;;8.10;71.50;;;;;;5039885;28;20056;-81
2023/04/25 09:51:10;;;;;;;3.83;1.08;;;8.10;70.90;;;;;;5021250;28;20050;-80
2023/04/25 09:53:40;;;;;;;9.02;2.10;;;8.10;71.90;;;;;;5037297;28;20042;-79
2023/04/25 09:56:09;;;;;;;6.22;1.73;;;8.20;72.40;;;;;;5007319;28;20073;-80
2023/04/25 09:58:36;;;;;;;9.63;1.77;;;8.40;72.70;;;;;;5004725;28;20064;-80
2023/04/25 10:01:05;;;;;;;3.55;1.13;;;8.50;73.00;;;;;;5005462;28;20041;-79
2023/04/25 10:03:33;;;;;;;7.43;1.17;;;8.60;72.70;;;;;;5027132;28;20045;-81
2023/04/25 10:06:06;;;;;;;6.03;1.27;;;8.70;72.30;;;;;;5025661;28;20135;-80
2023/04/25 10:08:34;;;;;;;8.90;1.60;;;8.80;70.40;;;;;;5016296;28;20426;-81
2023/04/25 10:11:07;;;;;;;10.05;1.15;;;8.80;70.50;;;;;;4983970;28;20119;-81
2023/04/25 10:13:33;;;;;;;2.35;1.17;;;9.00;69.70;;;;;;4999565;28;20508;-79
2023/04/25 10:16:01;;;;;;;7.35;1.35;;;9.10;70.50;;;;;;4983586;28;20049;-79
2023/04/25 10:18:28;;;;;;;6.30;1.63;;;9.10;68.20;;;;;;4983616;28;20042;-82
2023/04/25 10:20:55;;;;;;;2.63;1.10;;;9.00;68.60;;;;;;4999656;28;20058;-82
2023/04/25 10:23:21;;;;;;;10.93;1.85;;;9.20;68.50;;;;;;4999357;28;20084;-80
2023/04/25 10:25:48;;;;;;;6.45;1.27;;;9.30;67.50;;;;;;5016041;28;20096;-80
2023/04/25 10:28:14;;;;;;;6.78;1.67;;;9.40;65.50;;;;;;5015674;28;20131;-78
2023/04/25 10:31:04;;;;;;;8.00;1.90;;;9.50;64.10;;;;;;4999445;28;20081;-80
2023/04/25 10:33:41;;;;;;;5.63;1.08;;;9.70;63.60;;;;;;4999234;28;20129;-80
2023/04/25 10:36:20;;;;;;;4.95;1.05;;;9.80;65.20;;;;;;4999079;28;20037;-80
2023/04/25 10:38:47;;;;;;;4.10;1.38;;;10.00;62.70;;;;;;5015071;28;20052;-80
2023/04/25 10:41:14;;;;;;;9.15;1.67;;;10.20;61.30;;;;;;5014728;28;20037;-80
2023/04/25 10:43:41;;;;;;;6.38;1.42;;;10.20;65.20;;;;;;4999007;28;20034;-81
2023/04/25 10:46:23;;;;;;;9.27;1.73;;;10.00;64.30;;;;;;5015218;28;20038;-78
2023/04/25 10:48:57;;;;;;;4.85;1.27;;;9.50;67.80;;;;;;4998393;28;20050;-78
2023/04/25 10:51:28;;;;;;;7.18;1.85;;;8.90;68.80;;;;;;4998762;28;20042;-79
2023/04/25 10:54:03;;;;;;;5.28;1.58;;;8.40;72.90;;;;;;5013519;28;20093;-79
2023/04/25 10:56:38;;;;;;;4.50;1.80;;;8.00;74.60;;;;;;4997979;28;20053;-80
2023/04/25 10:59:10;;;;;;;8.43;1.55;;;7.80;76.00;;;;;;4997951;28;20498;-79
2023/04/25 11:01:46;;;;;;;4.05;1.73;;;7.80;76.40;;;;;;5014303;28;20046;-80
2023/04/25 11:04:31;;;;;;;5.78;1.30;;;8.00;77.10;;;;;;4997996;28;20313;-80
2023/04/25 11:07:06;;;;;;;5.97;1.40;;;8.30;76.70;;;;;;5014577;28;20033;-80
2023/04/25 11:09:34;;;;;;;3.80;1.08;;;8.50;73.80;;;;;;5014590;28;20057;-81
2023/04/25 11:12:00;;;;;;;4.40;0.85;;;8.80;72.00;;;;;;4997826;28;20042;-81
2023/04/25 11:14:26;;;;;;;3.00;0.80;;;9.00;70.10;;;;;;4997909;28;20053;-80
2023/04/25 11:16:59;;;;;;;4.25;1.23;;;9.10;70.00;;;;;;4997727;28;20045;-80
2023/04/25 11:19:26;;;;;;;6.20;1.67;;;9.30;70.80;;;;;;4997987;28;20050;-81
2023/04/25 11:21:56;;;;;;;6.00;1.42;;;9.50;68.30;;;;;;4997435;28;20046;-80
2023/04/25 11:24:40;;;;;;;6.50;2.20;;;9.70;68.10;;;;;;5013869;28;20093;-80
2023/04/25 11:27:06;;;;;;;4.45;1.63;;;10.00;69.10;;;;;;4997405;28;20084;-79
2023/04/25 11:29:34;;;;;;;6.72;1.45;;;10.10;67.10;;;;;;4997362;28;20069;-79
2023/04/25 11:32:00;;;;;;;9.13;2.28;;;10.10;67.60;;;;;;4997585;28;20049;-80
2023/04/25 11:34:30;;;;;;;5.70;2.13;;;10.00;67.80;;;;;;4997613;28;20061;-81
2023/04/25 11:36:56;;;;;;;5.60;1.90;;;10.00;68.30;;;;;;4997356;28;20042;-81
2023/04/25 11:39:24;;;;;;;8.98;2.45;;;9.90;68.30;;;;;;4997514;28;20095;-80
2023/04/25 11:41:50;;;;;;;5.35;1.50;;;9.80;69.70;;;;;;5013599;28;20148;-81
2023/04/25 11:44:17;;;;;;;4.65;1.48;;;9.60;68.50;;;;;;4997183;28;20046;-80
2023/04/25 11:46:44;;;;;;;7.88;1.52;;;9.60;69.00;;;;;;5013392;28;20041;-80
2023/04/25 11:49:10;;;;;;;8.50;3.53;;;9.50;69.30;;;;;;4996910;28;20085;-81
2023/04/25 11:51:40;;;;;;;9.50;1.48;;;9.50;70.50;;;;;;4996949;28;20123;-80
2023/04/25 11:54:06;;;;;;;7.53;1.80;;;9.50;70.40;;;;;;4980883;28;20038;-79
2023/04/25 11:56:32;;;;;;;8.40;1.60;;;9.50;70.40;;;;;;4997089;28;20048;-80
2023/04/25 11:59:05;;;;;;;6.50;1.27;;;9.90;70.40;;;;;;4980698;28;20494;-81
2023/04/25 12:01:38;;;;;;;8.73;1.58;;;10.00;70.00;;;;;;5012555;28;20042;-81
2023/04/25 12:04:18;;;;;;;9.88;2.30;;;10.10;69.40;;;;;;4997338;28;20045;-81
2023/04/25 12:06:48;;;;;;;6.07;2.00;;;10.30;69.10;;;;;;4996869;28;20521;-81
2023/04/25 12:09:17;;;;;;;8.57;1.45;;;10.50;64.90;;;;;;5012962;28;20596;-80
2023/04/25 12:11:48;;;;;;;5.53;1.00;;;10.50;63.40;;;;;;4996921;28;20505;-80
2023/04/25 12:14:26;;;;;;;6.55;1.38;;;10.20;60.30;;;;;;5012982;28;20045;-80
2023/04/25 12:16:55;;;;;;;7.13;1.45;;;10.00;61.40;;;;;;4996629;28;20042;-82
2023/04/25 12:19:21;;;;;;;5.93;1.92;;;9.90;60.10;;;;;;4980627;28;20042;-81
2023/04/25 12:21:48;;;;;;;6.95;1.75;;;9.60;61.30;;;;;;4996350;28;20037;-82
2023/04/25 12:24:16;;;;;;;7.13;1.33;;;9.70;61.90;;;;;;4996687;28;20072;-79
2023/04/25 12:26:50;;;;;;;3.10;1.00;;;9.90;61.30;;;;;;4996251;28;20547;-80
2023/04/25 12:29:23;;;;;;;7.50;1.10;;;10.00;58.10;;;;;;5012827;28;20037;-79
2023/04/25 12:31:51;;;;;;;4.47;0.98;;;10.20;57.10;;;;;;5013171;28;20111;-79
2023/04/25 12:34:18;;;;;;;5.28;1.02;;;10.50;56.90;;;;;;4980401;28;20382;-82
2023/04/25 12:36:43;;;;;;;10.15;1.77;;;10.60;55.30;;;;;;5012565;28;20050;-81
2023/04/25 12:39:24;;;;;;;6.32;2.17;;;10.70;57.30;;;;;;4996231;28;20050;-79
2023/04/25 12:41:52;;;;;;;5.70;1.50;;;11.00;57.80;;;;;;5012347;28;20041;-81
2023/04/25 12:44:17;;;;;;;5.93;1.60;;;11.20;56.10;;;;;;5012310;28;20192;-79
2023/04/25 12:46:43;;;;;;;4.35;1.05;;;11.10;58.20;;;;;;4995839;28;20325;-81
2023/04/25 12:49:09;;;;;;;2.72;1.20;;;11.20;59.50;;;;;;5013196;28;20058;-82
2023/04/25 12:51:36;;;;;;;4.22;1.20;;;11.30;57.00;;;;;;4988451;28;20062;-79
2023/04/25 12:54:05;;;;;;;5.95;1.65;;;11.10;55.60;;;;;;5004664;28;20062;-78